Time;durP1;ratioP1;P1;durP2;ratioP2;P2;SDS_P1;SDS_P2;PMS_P1;PMS_P2;Temp;Humidity;BMP_temperature;BMP_pressure;BME280_temperature;BME280_humidity;BME280_pressure;Samples;Min_cycle;Max_cycle;Signal;HPM_P1;HPM_P2
2022/07/06 00:01:50;;;;;;;21.58;19.95;;;12.70;99.90;;;;;;5043392;28;20121;-74
2022/07/06 00:04:18;;;;;;;21.27;19.92;;;12.60;99.90;;;;;;5050777;28;20044;-74
2022/07/06 00:06:45;;;;;;;20.58;19.27;;;12.50;99.90;;;;;;5043790;28;20051;-74
2022/07/06 00:09:12;;;;;;;21.55;20.23;;;12.30;99.90;;;;;;5052876;28;20113;-74
2022/07/06 00:11:39;;;;;;;21.00;19.73;;;12.40;99.90;;;;;;5046146;28;20044;-73
2022/07/06 00:14:06;;;;;;;21.92;20.40;;;12.50;99.90;;;;;;5048394;28;20127;-73
2022/07/06 00:16:32;;;;;;;20.63;19.25;;;12.40;99.90;;;;;;5067987;28;20048;-74
2022/07/06 00:18:59;;;;;;;20.88;19.33;;;12.30;99.90;;;;;;5074285;28;20135;-74
2022/07/06 00:21:26;;;;;;;20.80;19.40;;;12.30;99.90;;;;;;5069206;28;20127;-74
2022/07/06 00:23:53;;;;;;;22.00;20.55;;;12.10;99.90;;;;;;5063762;28;20659;-74
2022/07/06 00:26:20;;;;;;;20.98;19.42;;;12.10;99.90;;;;;;5074485;28;20044;-74
2022/07/06 00:28:47;;;;;;;22.17;20.33;;;12.10;99.90;;;;;;5072275;28;20630;-74
2022/07/06 00:31:13;;;;;;;21.85;20.13;;;12.00;99.90;;;;;;5047981;28;20040;-74
2022/07/06 00:33:40;;;;;;;21.23;19.70;;;11.90;99.90;;;;;;5042434;28;20044;-73
2022/07/06 00:36:07;;;;;;;21.45;19.95;;;11.90;99.90;;;;;;5050121;28;20470;-74
2022/07/06 00:38:34;;;;;;;21.33;19.85;;;12.00;99.90;;;;;;5041700;28;20060;-74
2022/07/06 00:41:03;;;;;;;21.30;19.67;;;12.00;99.90;;;;;;5063585;28;20046;-74
2022/07/06 00:43:47;;;;;;;21.38;20.08;;;11.90;99.90;;;;;;5044621;28;20437;-74
2022/07/06 00:46:14;;;;;;;22.77;21.17;;;11.90;99.90;;;;;;5034258;28;20457;-73
2022/07/06 00:48:41;;;;;;;21.88;20.27;;;11.80;99.90;;;;;;5051102;28;20059;-74
2022/07/06 00:51:08;;;;;;;21.30;19.88;;;11.70;99.90;;;;;;5031046;28;20668;-73
2022/07/06 00:53:35;;;;;;;21.23;19.65;;;11.60;99.90;;;;;;5029996;28;20079;-73
2022/07/06 00:56:03;;;;;;;21.75;20.25;;;11.60;99.90;;;;;;5040353;28;20131;-74
2022/07/06 00:58:30;;;;;;;21.70;20.08;;;11.50;99.90;;;;;;5073802;28;20104;-74
2022/07/06 01:00:57;;;;;;;21.85;20.25;;;11.60;99.90;;;;;;5049945;28;20338;-74
2022/07/06 01:03:24;;;;;;;21.58;19.98;;;11.60;99.90;;;;;;5061423;28;20045;-73
2022/07/06 01:05:51;;;;;;;20.98;19.58;;;11.40;99.90;;;;;;5058658;28;20052;-74
2022/07/06 01:08:18;;;;;;;21.10;19.60;;;11.50;99.90;;;;;;5042490;28;20075;-73
2022/07/06 01:10:45;;;;;;;19.75;18.45;;;11.40;99.90;;;;;;5041333;28;20059;-74
2022/07/06 01:13:12;;;;;;;19.98;18.70;;;11.50;99.90;;;;;;5032220;28;20044;-74
2022/07/06 01:15:39;;;;;;;21.10;19.52;;;11.50;99.90;;;;;;5045622;28;20140;-73
2022/07/06 01:18:11;;;;;;;19.67;18.58;;;11.40;99.90;;;;;;5043847;28;20057;-74
2022/07/06 01:20:38;;;;;;;20.10;18.85;;;11.50;99.90;;;;;;5038470;28;20042;-74
2022/07/06 01:23:04;;;;;;;19.83;18.73;;;11.50;99.90;;;;;;5041549;28;20040;-74
2022/07/06 01:25:32;;;;;;;20.17;18.90;;;11.50;99.90;;;;;;5044060;28;20052;-74
2022/07/06 01:27:59;;;;;;;20.40;19.20;;;11.60;99.90;;;;;;5054980;28;20294;-74
2022/07/06 01:30:26;;;;;;;20.50;19.17;;;11.50;99.90;;;;;;5062400;28;20197;-73
2022/07/06 01:32:53;;;;;;;21.13;19.48;;;11.50;99.90;;;;;;5034209;28;20049;-74
2022/07/06 01:35:20;;;;;;;20.58;19.17;;;11.60;99.90;;;;;;5049886;28;20459;-74
2022/07/06 01:37:46;;;;;;;20.60;19.10;;;11.60;99.90;;;;;;5044258;28;20072;-74
2022/07/06 01:40:13;;;;;;;19.83;18.42;;;11.60;99.90;;;;;;5041600;28;20645;-74
2022/07/06 01:42:40;;;;;;;20.50;19.10;;;11.70;99.90;;;;;;5048355;28;20044;-73
2022/07/06 01:45:08;;;;;;;20.33;18.98;;;11.70;99.90;;;;;;5070386;28;20135;-74
2022/07/06 01:47:36;;;;;;;20.33;18.48;;;11.50;99.90;;;;;;5032507;28;20149;-74
2022/07/06 01:50:06;;;;;;;19.88;18.67;;;11.30;99.90;;;;;;5049621;28;20047;-74
2022/07/06 01:52:36;;;;;;;19.75;18.55;;;11.20;99.90;;;;;;5045568;28;21210;-74
2022/07/06 01:55:03;;;;;;;19.65;18.30;;;11.20;99.90;;;;;;5060350;28;20571;-74
2022/07/06 01:57:32;;;;;;;19.90;18.35;;;11.30;99.90;;;;;;5054357;28;20090;-73
2022/07/06 01:59:59;;;;;;;19.30;17.90;;;11.50;99.90;;;;;;5051422;28;20055;-74
2022/07/06 02:02:26;;;;;;;17.77;16.70;;;11.30;99.90;;;;;;5045236;28;20056;-74
2022/07/06 02:04:52;;;;;;;18.63;17.20;;;11.30;99.90;;;;;;5045564;28;20266;-73
2022/07/06 02:07:19;;;;;;;19.00;17.60;;;11.40;99.90;;;;;;5048644;28;20040;-74
2022/07/06 02:09:46;;;;;;;19.58;18.05;;;11.40;99.90;;;;;;5045639;28;20475;-74
2022/07/06 02:12:13;;;;;;;19.10;17.90;;;11.40;99.90;;;;;;5065867;28;20552;-74
2022/07/06 02:14:39;;;;;;;18.88;17.77;;;11.50;99.90;;;;;;5041259;28;20110;-74
2022/07/06 02:17:06;;;;;;;19.30;17.73;;;11.50;99.90;;;;;;5068339;28;20045;-73
2022/07/06 02:19:34;;;;;;;20.02;18.63;;;11.50;99.90;;;;;;5052075;28;20044;-74
2022/07/06 02:22:01;;;;;;;20.10;18.92;;;11.60;99.90;;;;;;5046907;28;20071;-74
2022/07/06 02:24:28;;;;;;;19.73;18.42;;;11.80;99.90;;;;;;5046901;28;20048;-74
2022/07/06 02:26:55;;;;;;;20.02;18.63;;;11.80;99.90;;;;;;5054089;28;20036;-73
2022/07/06 02:29:23;;;;;;;18.98;17.88;;;11.80;99.90;;;;;;5046666;28;20115;-73
2022/07/06 02:31:50;;;;;;;19.35;18.10;;;11.80;99.90;;;;;;5063252;28;20104;-73
2022/07/06 02:34:17;;;;;;;18.92;17.63;;;11.80;99.90;;;;;;5061446;28;20048;-73
2022/07/06 02:36:43;;;;;;;18.25;16.77;;;11.90;99.90;;;;;;5039640;28;20450;-74
2022/07/06 02:39:10;;;;;;;18.00;16.95;;;11.90;99.90;;;;;;5043660;28;20171;-74
2022/07/06 02:41:39;;;;;;;17.88;16.75;;;11.90;99.90;;;;;;5041009;28;20506;-73
2022/07/06 02:44:06;;;;;;;19.10;17.80;;;11.90;99.90;;;;;;5045373;28;20450;-73
2022/07/06 02:46:33;;;;;;;19.02;17.63;;;11.90;99.90;;;;;;5041591;28;20127;-74
2022/07/06 02:49:00;;;;;;;18.48;17.33;;;12.00;99.90;;;;;;5044291;28;20040;-74
2022/07/06 02:51:27;;;;;;;19.88;18.10;;;12.00;99.90;;;;;;5034192;28;20125;-74
2022/07/06 02:53:54;;;;;;;19.25;17.88;;;12.10;99.90;;;;;;5045050;28;20044;-74
2022/07/06 02:56:22;;;;;;;20.63;18.77;;;12.10;99.90;;;;;;5039196;28;20059;-74
2022/07/06 02:58:49;;;;;;;20.08;18.55;;;12.10;99.90;;;;;;5041857;28;20524;-74
2022/07/06 03:01:15;;;;;;;20.17;18.67;;;12.10;99.90;;;;;;5039607;28;20097;-74
2022/07/06 03:03:42;;;;;;;21.15;19.60;;;12.10;99.90;;;;;;5037814;28;20505;-74
2022/07/06 03:06:10;;;;;;;20.13;18.90;;;12.20;99.90;;;;;;5048236;28;20279;-73
2022/07/06 03:08:36;;;;;;;20.85;19.50;;;12.30;99.90;;;;;;5038528;28;20933;-74
2022/07/06 03:11:04;;;;;;;21.15;19.77;;;12.50;99.90;;;;;;5060201;28;20036;-74
2022/07/06 03:13:31;;;;;;;23.23;21.42;;;12.60;99.90;;;;;;5044595;28;20151;-74
2022/07/06 03:15:59;;;;;;;21.38;19.77;;;12.70;99.90;;;;;;5051360;28;20113;-74
2022/07/06 03:18:27;;;;;;;22.17;20.45;;;12.80;99.90;;;;;;5040068;28;20105;-74
2022/07/06 03:20:55;;;;;;;21.70;19.90;;;12.90;99.90;;;;;;5047766;28;20057;-74
2022/07/06 03:23:22;;;;;;;21.25;19.67;;;12.80;99.90;;;;;;5033949;28;20048;-74
2022/07/06 03:25:49;;;;;;;22.15;20.45;;;12.80;99.90;;;;;;5066895;28;20036;-74
2022/07/06 03:28:16;;;;;;;21.20;19.90;;;12.80;99.90;;;;;;5056103;28;20047;-74
2022/07/06 03:30:43;;;;;;;22.25;20.42;;;12.80;99.90;;;;;;5029180;28;20064;-74
2022/07/06 03:33:10;;;;;;;21.35;19.55;;;12.90;99.90;;;;;;5094013;22;20071;-76
2022/07/06 03:35:37;;;;;;;20.30;19.00;;;13.00;99.90;;;;;;5061065;28;20045;-76
2022/07/06 03:38:06;;;;;;;22.58;20.42;;;13.10;99.90;;;;;;5053098;28;20410;-75
2022/07/06 03:40:33;;;;;;;22.90;20.98;;;13.10;99.90;;;;;;5051971;28;20040;-76
2022/07/06 03:43:00;;;;;;;21.73;19.92;;;13.10;99.90;;;;;;5040545;28;20105;-75
2022/07/06 03:45:30;;;;;;;22.85;21.15;;;13.10;99.90;;;;;;5047385;28;20813;-76
2022/07/06 03:47:58;;;;;;;23.35;21.60;;;13.10;99.90;;;;;;5052905;28;20079;-76
2022/07/06 03:50:26;;;;;;;22.15;20.50;;;13.10;99.90;;;;;;5058776;28;20226;-76
2022/07/06 03:52:53;;;;;;;22.35;20.67;;;13.20;99.90;;;;;;5038189;28;20052;-75
2022/07/06 03:55:19;;;;;;;21.80;19.95;;;13.20;99.90;;;;;;5028233;28;20049;-75
2022/07/06 03:57:51;;;;;;;22.00;20.20;;;13.20;99.90;;;;;;5036780;28;20064;-75
2022/07/06 04:00:21;;;;;;;22.85;21.08;;;13.10;99.90;;;;;;5049306;28;20068;-76
2022/07/06 04:02:55;;;;;;;23.85;22.13;;;13.20;99.90;;;;;;5038933;28;20326;-76
2022/07/06 04:05:27;;;;;;;24.10;21.90;;;13.20;99.90;;;;;;5049132;28;20044;-76
2022/07/06 04:07:54;;;;;;;24.00;22.10;;;13.20;99.90;;;;;;5029799;28;20510;-74
2022/07/06 04:10:26;;;;;;;25.02;23.13;;;13.20;99.90;;;;;;5050070;28;20044;-74
2022/07/06 04:12:55;;;;;;;23.95;22.15;;;13.20;99.90;;;;;;5057858;28;20183;-75
2022/07/06 04:15:23;;;;;;;24.42;22.60;;;13.20;99.90;;;;;;5050847;28;20053;-75
2022/07/06 04:18:16;;;;;;;23.75;21.92;;;13.20;99.90;;;;;;5045803;28;20136;-76
2022/07/06 04:20:48;;;;;;;25.55;22.50;;;13.20;99.90;;;;;;5052282;28;20442;-74
2022/07/06 04:23:15;;;;;;;24.08;22.25;;;13.20;99.90;;;;;;5042144;28;20048;-75
2022/07/06 04:25:42;;;;;;;23.55;21.83;;;13.20;99.90;;;;;;5057104;28;20356;-75
2022/07/06 04:28:09;;;;;;;24.10;22.20;;;13.30;99.90;;;;;;5050771;28;20402;-75
2022/07/06 04:30:36;;;;;;;24.55;22.65;;;13.40;99.90;;;;;;5035495;28;20408;-74
2022/07/06 04:33:06;;;;;;;25.05;22.98;;;13.40;99.90;;;;;;5035702;28;20045;-74
2022/07/06 04:35:34;;;;;;;24.30;22.05;;;13.30;99.90;;;;;;5054107;28;20089;-76
2022/07/06 04:38:02;;;;;;;24.70;22.88;;;13.10;99.90;;;;;;5069247;28;20073;-75
2022/07/06 04:40:28;;;;;;;24.25;22.45;;;13.10;99.90;;;;;;5050130;28;20303;-76
2022/07/06 04:42:59;;;;;;;23.65;21.80;;;13.20;99.90;;;;;;5058241;28;20500;-75
2022/07/06 04:45:27;;;;;;;25.33;22.92;;;13.20;99.90;;;;;;5047878;28;20059;-74
2022/07/06 04:47:55;;;;;;;23.40;21.70;;;13.20;99.90;;;;;;5077461;22;20056;-76
2022/07/06 04:50:23;;;;;;;23.30;21.27;;;13.30;99.90;;;;;;5038973;28;20048;-74
2022/07/06 04:52:51;;;;;;;24.10;22.17;;;13.30;99.90;;;;;;5060273;28;20048;-75
2022/07/06 04:55:18;;;;;;;24.65;22.67;;;13.30;99.90;;;;;;5031594;28;20079;-75
2022/07/06 04:57:46;;;;;;;24.40;22.50;;;13.40;99.90;;;;;;5060355;28;20139;-76
2022/07/06 05:00:15;;;;;;;24.88;22.85;;;13.30;99.90;;;;;;5056982;28;20112;-75
2022/07/06 05:02:42;;;;;;;24.02;22.10;;;13.30;99.90;;;;;;5059046;28;20052;-75
2022/07/06 05:05:10;;;;;;;24.60;22.50;;;13.40;99.90;;;;;;5060986;28;20119;-72
2022/07/06 05:07:41;;;;;;;25.33;23.23;;;13.40;99.90;;;;;;5040676;28;20044;-75
2022/07/06 05:10:10;;;;;;;24.23;22.40;;;13.40;99.90;;;;;;5073846;28;20550;-73
2022/07/06 05:12:40;;;;;;;24.50;22.40;;;13.50;99.90;;;;;;5039607;28;20044;-75
2022/07/06 05:15:08;;;;;;;22.85;21.27;;;13.60;99.90;;;;;;5050642;28;20040;-75
2022/07/06 05:17:35;;;;;;;25.42;23.25;;;13.60;99.90;;;;;;5059885;28;20131;-75
2022/07/06 05:20:05;;;;;;;25.50;23.35;;;13.60;99.90;;;;;;5053638;28;20547;-74
2022/07/06 05:22:34;;;;;;;25.45;23.25;;;13.70;99.90;;;;;;5050227;28;20409;-74
2022/07/06 05:25:05;;;;;;;25.35;23.35;;;13.80;99.90;;;;;;5060542;28;20233;-76
2022/07/06 05:27:32;;;;;;;24.30;22.60;;;13.90;99.90;;;;;;5040327;28;20048;-76
2022/07/06 05:29:59;;;;;;;24.90;22.88;;;13.90;99.90;;;;;;5043088;28;21128;-74
2022/07/06 05:32:26;;;;;;;24.90;22.98;;;13.90;99.90;;;;;;5054053;28;20131;-77
2022/07/06 05:34:53;;;;;;;24.95;23.05;;;13.90;99.90;;;;;;5059020;28;20054;-75
2022/07/06 05:37:20;;;;;;;26.52;24.15;;;14.10;99.90;;;;;;5058859;28;20538;-74
2022/07/06 05:39:49;;;;;;;24.80;23.00;;;14.20;99.90;;;;;;5052839;28;20056;-75
2022/07/06 05:42:17;;;;;;;24.63;22.92;;;14.20;99.90;;;;;;5058592;28;20039;-73
2022/07/06 05:44:44;;;;;;;25.13;23.15;;;14.20;99.90;;;;;;5054600;28;20049;-73
2022/07/06 05:50:13;;;;;;;24.23;22.42;;;14.20;99.90;;;;;;5059379;28;20485;-75
2022/07/06 05:52:58;;;;;;;24.75;23.05;;;14.30;99.90;;;;;;5036357;28;20097;-75
2022/07/06 05:55:27;;;;;;;23.73;21.88;;;14.20;99.90;;;;;;5033049;28;20158;-75
2022/07/06 05:57:55;;;;;;;24.20;22.40;;;14.30;99.90;;;;;;5055143;28;20036;-76
2022/07/06 06:00:25;;;;;;;23.45;21.70;;;14.50;99.90;;;;;;5052721;28;20055;-75
2022/07/06 06:02:55;;;;;;;23.63;21.83;;;14.70;99.90;;;;;;5036868;28;20044;-75
2022/07/06 06:05:22;;;;;;;23.80;21.55;;;14.80;99.90;;;;;;5049895;28;20044;-77
2022/07/06 06:07:54;;;;;;;23.60;21.40;;;14.80;99.90;;;;;;5041575;28;20071;-74
2022/07/06 06:10:24;;;;;;;23.60;21.67;;;14.80;99.90;;;;;;5051874;28;20039;-79
2022/07/06 06:12:55;;;;;;;23.27;21.70;;;14.60;99.90;;;;;;5048480;28;20045;-77
2022/07/06 06:15:22;;;;;;;23.98;22.13;;;14.70;99.90;;;;;;5027763;28;20134;-75
2022/07/06 06:17:49;;;;;;;23.85;22.00;;;14.70;99.90;;;;;;5035643;28;20075;-77
2022/07/06 06:20:17;;;;;;;25.02;22.15;;;14.70;99.90;;;;;;5076282;28;20884;-76
2022/07/06 06:22:52;;;;;;;22.55;21.05;;;14.50;99.90;;;;;;5047222;28;20896;-77
2022/07/06 06:25:27;;;;;;;23.70;21.67;;;14.40;99.90;;;;;;5042255;28;20043;-77
2022/07/06 06:27:54;;;;;;;22.23;20.63;;;14.50;99.90;;;;;;5055104;28;20048;-78
2022/07/06 06:30:20;;;;;;;23.35;21.45;;;14.50;99.90;;;;;;5074495;28;20047;-78
2022/07/06 06:32:48;;;;;;;22.23;20.48;;;14.70;99.90;;;;;;5055961;28;20045;-78
2022/07/06 06:35:15;;;;;;;23.13;21.67;;;15.00;99.90;;;;;;5061971;28;20126;-79
2022/07/06 06:37:41;;;;;;;22.42;20.80;;;15.30;99.90;;;;;;5056152;28;20041;-78
2022/07/06 06:40:11;;;;;;;25.05;22.60;;;15.60;99.90;;;;;;5052404;28;20045;-77
2022/07/06 06:42:38;;;;;;;23.48;21.77;;;15.90;99.90;;;;;;5066786;28;20044;-77
2022/07/06 06:45:10;;;;;;;24.33;22.63;;;16.10;99.90;;;;;;5055172;28;20040;-78
2022/07/06 06:47:37;;;;;;;23.30;22.00;;;15.90;99.90;;;;;;5056109;28;20917;-78
2022/07/06 06:50:04;;;;;;;22.67;21.25;;;15.90;99.90;;;;;;5062948;28;20055;-78
2022/07/06 06:52:31;;;;;;;24.30;22.52;;;15.80;99.90;;;;;;5047657;28;20049;-80
2022/07/06 06:55:07;;;;;;;23.92;22.00;;;15.90;99.90;;;;;;5068098;28;20096;-75
2022/07/06 06:57:34;;;;;;;24.95;22.75;;;15.80;99.90;;;;;;5041782;28;20044;-77
2022/07/06 07:00:02;;;;;;;23.75;22.08;;;15.60;99.90;;;;;;5067581;28;20051;-76
2022/07/06 07:02:29;;;;;;;23.42;21.65;;;15.40;99.90;;;;;;5064974;28;20050;-78
2022/07/06 07:04:56;;;;;;;23.48;21.92;;;15.40;99.90;;;;;;5037071;28;20041;-80
2022/07/06 07:07:23;;;;;;;24.08;22.02;;;15.20;99.90;;;;;;5055410;28;20573;-77
2022/07/06 07:09:49;;;;;;;23.30;21.67;;;15.20;99.90;;;;;;5040849;28;20044;-78
2022/07/06 07:12:16;;;;;;;23.52;21.92;;;15.10;99.90;;;;;;5048159;28;20036;-77
2022/07/06 07:14:44;;;;;;;23.95;21.92;;;15.00;99.90;;;;;;5039349;28;20479;-75
2022/07/06 07:17:11;;;;;;;22.88;21.02;;;15.00;99.90;;;;;;5045009;28;20054;-78
2022/07/06 07:19:38;;;;;;;23.67;21.80;;;14.90;99.90;;;;;;5038081;28;20105;-76
2022/07/06 07:22:05;;;;;;;23.73;22.13;;;14.80;99.90;;;;;;5046642;28;20035;-77
2022/07/06 07:24:32;;;;;;;25.02;23.08;;;14.80;99.90;;;;;;5051156;28;20120;-78
2022/07/06 07:26:59;;;;;;;24.33;22.63;;;14.80;99.90;;;;;;5085616;28;20051;-78
2022/07/06 07:29:26;;;;;;;24.65;23.05;;;14.80;99.90;;;;;;5065474;28;20046;-78
2022/07/06 07:31:53;;;;;;;23.80;22.08;;;14.90;99.90;;;;;;5069754;28;20041;-78
2022/07/06 07:34:20;;;;;;;23.83;22.15;;;15.00;99.90;;;;;;5054142;28;20051;-78
2022/07/06 07:36:47;;;;;;;23.48;21.85;;;15.20;99.90;;;;;;5062523;28;20048;-79
2022/07/06 07:39:14;;;;;;;24.67;22.83;;;15.30;99.90;;;;;;5083906;28;20097;-77
2022/07/06 07:41:41;;;;;;;25.17;23.27;;;15.20;99.90;;;;;;5066931;28;20546;-76
2022/07/06 07:44:08;;;;;;;24.55;22.85;;;15.20;99.90;;;;;;5053542;28;20170;-78
2022/07/06 07:46:34;;;;;;;24.38;22.65;;;15.20;99.90;;;;;;5073163;28;20032;-76
2022/07/06 07:49:02;;;;;;;24.33;22.58;;;15.30;99.90;;;;;;5076476;28;20048;-75
2022/07/06 07:51:30;;;;;;;24.88;23.02;;;15.30;99.90;;;;;;5057253;28;20084;-79
2022/07/06 07:53:57;;;;;;;25.23;23.10;;;15.30;99.90;;;;;;5041195;28;20072;-76
2022/07/06 07:56:24;;;;;;;23.92;22.33;;;15.50;99.90;;;;;;5068275;28;20043;-81
2022/07/06 07:58:51;;;;;;;24.50;22.75;;;15.40;99.90;;;;;;5039164;28;20052;-75
2022/07/06 08:01:22;;;;;;;25.58;23.58;;;15.30;99.90;;;;;;5033332;28;20758;-77
2022/07/06 08:03:49;;;;;;;24.35;22.25;;;15.10;99.90;;;;;;5045126;28;20123;-77
2022/07/06 08:06:15;;;;;;;23.92;22.33;;;15.10;99.90;;;;;;5066464;28;20042;-79
2022/07/06 08:08:42;;;;;;;23.42;21.85;;;15.20;99.90;;;;;;5057234;28;20137;-79
2022/07/06 08:11:10;;;;;;;24.42;22.33;;;15.20;99.90;;;;;;5047164;28;20036;-76
2022/07/06 08:13:45;;;;;;;24.52;22.73;;;15.20;99.90;;;;;;5062331;28;20052;-79
2022/07/06 08:16:12;;;;;;;23.98;22.33;;;15.20;99.90;;;;;;5065232;28;20049;-77
2022/07/06 08:18:39;;;;;;;25.02;23.38;;;15.20;99.90;;;;;;5079785;28;20091;-78
2022/07/06 08:21:07;;;;;;;23.98;22.35;;;15.20;99.90;;;;;;5068272;28;20586;-77
2022/07/06 08:23:52;;;;;;;;;;;15.40;99.90;;;;;;5068730;28;20266;-78
2022/07/06 08:26:19;;;;;;;23.13;21.40;;;15.50;99.90;;;;;;5059713;28;19954;-76
2022/07/06 08:28:46;;;;;;;23.35;21.70;;;15.60;99.90;;;;;;5056170;28;20040;-76
2022/07/06 08:31:13;;;;;;;23.17;21.55;;;15.80;99.90;;;;;;5061403;28;20043;-74
2022/07/06 08:34:01;;;;;;;23.35;21.85;;;15.80;99.90;;;;;;5067186;28;20040;-77
2022/07/06 08:36:28;;;;;;;23.27;21.67;;;15.70;99.90;;;;;;5035115;28;20056;-79
2022/07/06 08:38:55;;;;;;;22.75;21.33;;;15.90;99.90;;;;;;5065163;28;20070;-79
2022/07/06 08:41:25;;;;;;;23.23;21.67;;;16.10;99.90;;;;;;5050957;28;20043;-75
2022/07/06 08:43:53;;;;;;;22.58;21.27;;;16.30;99.90;;;;;;5038890;28;20131;-78
2022/07/06 08:46:21;;;;;;;22.92;21.50;;;16.40;99.90;;;;;;5076344;28;20216;-78
2022/07/06 08:48:49;;;;;;;21.45;20.10;;;16.50;99.90;;;;;;5050907;28;20419;-77
2022/07/06 08:51:18;;;;;;;22.02;20.73;;;16.50;99.90;;;;;;5055080;28;20126;-78
2022/07/06 08:53:48;;;;;;;23.05;21.55;;;16.60;99.90;;;;;;5047431;28;20055;-79
2022/07/06 08:56:17;;;;;;;22.98;21.48;;;16.80;99.90;;;;;;5044280;28;20051;-77
2022/07/06 08:58:45;;;;;;;23.52;21.95;;;16.80;99.90;;;;;;5035988;28;20044;-78
2022/07/06 09:01:12;;;;;;;23.10;21.60;;;16.70;99.90;;;;;;5034844;28;20040;-78
2022/07/06 09:03:41;;;;;;;21.27;19.92;;;16.60;99.90;;;;;;5043306;28;20135;-79
2022/07/06 09:06:09;;;;;;;22.40;20.98;;;16.60;99.90;;;;;;5072722;28;20135;-77
2022/07/06 09:08:36;;;;;;;23.73;22.42;;;16.80;99.90;;;;;;5049729;28;20052;-81
2022/07/06 09:11:04;;;;;;;22.05;20.58;;;17.10;99.90;;;;;;5056023;28;20090;-78
2022/07/06 09:13:31;;;;;;;21.30;19.90;;;17.80;99.90;;;;;;5063394;28;20273;-78
2022/07/06 09:16:12;;;;;;;23.17;21.50;;;17.80;99.90;;;;;;5062616;28;20059;-77
2022/07/06 09:18:58;;;;;;;22.33;20.77;;;17.70;99.90;;;;;;5076704;28;20032;-80
2022/07/06 09:21:27;;;;;;;23.42;21.85;;;17.10;99.90;;;;;;5073586;28;20051;-77
2022/07/06 09:23:56;;;;;;;23.85;22.25;;;16.90;99.90;;;;;;5038880;28;20072;-77
2022/07/06 09:26:24;;;;;;;23.52;22.00;;;16.50;99.90;;;;;;5057888;28;20047;-80
2022/07/06 09:28:51;;;;;;;24.48;22.88;;;16.50;99.90;;;;;;5045178;28;20036;-78
2022/07/06 09:31:18;;;;;;;24.33;22.52;;;16.50;99.90;;;;;;5070719;22;20037;-73
2022/07/06 09:34:02;;;;;;;24.40;22.63;;;16.50;99.90;;;;;;5052337;28;20044;-71
2022/07/06 09:36:49;;;;;;;23.75;22.25;;;16.40;99.90;;;;;;5055300;28;20052;-73
2022/07/06 09:39:23;;;;;;;23.20;21.90;;;16.50;99.90;;;;;;5058608;28;20051;-73
2022/07/06 09:41:52;;;;;;;23.33;21.70;;;16.40;99.90;;;;;;5052686;28;20120;-74
2022/07/06 09:44:30;;;;;;;22.65;21.30;;;16.60;99.90;;;;;;5044163;28;20047;-73
2022/07/06 09:46:58;;;;;;;22.15;20.85;;;16.80;99.90;;;;;;5044109;28;20056;-73
2022/07/06 09:49:25;;;;;;;23.50;22.15;;;17.00;99.90;;;;;;5071643;28;20110;-73
2022/07/06 09:51:55;;;;;;;22.30;20.90;;;17.20;99.90;;;;;;5066430;28;20040;-73
2022/07/06 09:54:22;;;;;;;21.55;20.25;;;17.50;99.90;;;;;;5039779;28;20151;-74
2022/07/06 09:56:51;;;;;;;21.17;19.98;;;17.80;99.90;;;;;;5042808;28;20059;-74
2022/07/06 09:59:23;;;;;;;21.38;20.10;;;18.10;99.90;;;;;;5045939;28;20076;-72
2022/07/06 10:01:58;;;;;;;21.27;20.02;;;18.30;99.90;;;;;;5058891;28;20044;-73
2022/07/06 10:04:26;;;;;;;21.92;20.60;;;18.30;99.90;;;;;;5064569;28;20579;-73
2022/07/06 10:06:55;;;;;;;22.27;20.50;;;18.20;99.90;;;;;;5040875;28;20051;-74
2022/07/06 10:09:24;;;;;;;22.17;20.67;;;18.10;99.90;;;;;;5071596;28;20056;-73
2022/07/06 10:12:00;;;;;;;22.92;21.42;;;18.20;99.90;;;;;;5048268;28;20078;-73
2022/07/06 10:14:29;;;;;;;23.48;21.98;;;17.90;99.90;;;;;;5063785;28;20048;-73
2022/07/06 10:16:58;;;;;;;22.73;21.33;;;17.70;99.90;;;;;;5046801;28;20058;-73
2022/07/06 10:19:25;;;;;;;22.02;20.63;;;17.50;99.90;;;;;;5052722;28;20221;-73
2022/07/06 10:21:53;;;;;;;22.55;20.98;;;17.40;99.90;;;;;;5068365;28;20044;-73
2022/07/06 10:24:20;;;;;;;22.30;20.90;;;17.30;99.90;;;;;;5050682;28;20040;-73
2022/07/06 10:26:48;;;;;;;22.83;21.42;;;17.10;99.90;;;;;;5049591;28;20090;-73
2022/07/06 10:29:15;;;;;;;22.42;20.98;;;17.00;99.90;;;;;;5069598;28;20225;-73
2022/07/06 10:31:45;;;;;;;23.98;22.38;;;17.10;99.90;;;;;;5045338;28;20068;-73
2022/07/06 10:34:14;;;;;;;22.27;20.73;;;17.00;99.90;;;;;;5033642;28;20049;-73
2022/07/06 10:36:43;;;;;;;22.50;20.80;;;17.10;99.90;;;;;;5045358;28;20052;-73
2022/07/06 10:41:56;;;;;;;23.02;21.50;;;17.00;99.90;;;;;;5066463;28;20528;-73
2022/07/06 10:44:26;;;;;;;23.58;21.98;;;16.90;99.90;;;;;;5046378;28;20043;-73
2022/07/06 10:46:54;;;;;;;24.58;22.70;;;16.80;99.90;;;;;;5066098;28;20049;-73
2022/07/06 10:49:22;;;;;;;23.63;22.00;;;16.70;99.90;;;;;;5048059;28;20775;-73
2022/07/06 10:52:08;;;;;;;23.83;22.35;;;16.40;99.90;;;;;;5070739;28;20050;-73
2022/07/06 10:54:40;;;;;;;24.00;22.20;;;16.40;99.90;;;;;;5063222;28;20080;-73
2022/07/06 10:57:14;;;;;;;24.15;22.40;;;16.50;99.90;;;;;;5068584;28;20097;-73
2022/07/06 10:59:59;;;;;;;23.02;21.67;;;16.60;99.90;;;;;;5063311;28;20490;-73
2022/07/06 11:02:26;;;;;;;23.00;21.35;;;16.60;99.90;;;;;;5049207;28;20152;-73
2022/07/06 11:04:53;;;;;;;23.65;21.90;;;16.70;99.90;;;;;;5045927;28;20036;-73
2022/07/06 11:07:20;;;;;;;22.55;20.95;;;16.50;99.90;;;;;;5036807;28;20124;-73
2022/07/06 11:09:54;;;;;;;23.20;21.63;;;16.40;99.90;;;;;;5043184;28;20044;-73
2022/07/06 11:12:21;;;;;;;22.77;21.20;;;16.50;99.90;;;;;;5068328;28;20086;-73
2022/07/06 11:14:49;;;;;;;22.15;20.45;;;16.70;99.90;;;;;;5049415;28;20048;-73
2022/07/06 11:17:17;;;;;;;22.63;21.23;;;16.90;99.90;;;;;;5068565;28;20310;-73
2022/07/06 11:19:58;;;;;;;21.98;20.60;;;17.10;99.90;;;;;;5058104;28;20067;-73
2022/07/06 11:22:26;;;;;;;22.15;20.73;;;17.20;99.90;;;;;;5032549;28;20059;-73
2022/07/06 11:24:55;;;;;;;22.30;20.80;;;17.40;99.90;;;;;;5051532;28;20242;-73
2022/07/06 11:27:23;;;;;;;22.60;20.85;;;17.20;99.90;;;;;;5072780;28;20044;-73
2022/07/06 11:29:50;;;;;;;21.98;20.55;;;17.00;99.90;;;;;;5070088;28;20047;-73
2022/07/06 11:32:24;;;;;;;23.23;21.73;;;17.20;99.90;;;;;;5073994;28;20071;-74
2022/07/06 11:34:51;;;;;;;23.20;21.60;;;17.20;99.90;;;;;;5048129;28;20526;-73
2022/07/06 11:37:18;;;;;;;23.27;21.33;;;17.10;99.90;;;;;;5049911;28;20059;-73
2022/07/06 11:39:46;;;;;;;23.10;21.38;;;17.30;99.90;;;;;;5066656;28;20101;-73
2022/07/06 11:42:16;;;;;;;23.30;21.67;;;17.70;99.90;;;;;;5070347;28;20061;-74
2022/07/06 11:44:44;;;;;;;22.95;21.40;;;17.90;99.90;;;;;;5066322;28;20052;-73
2022/07/06 11:47:13;;;;;;;23.88;22.20;;;17.90;99.90;;;;;;5050578;28;20032;-73
2022/07/06 11:49:45;;;;;;;25.35;23.70;;;17.70;99.90;;;;;;5051292;28;20040;-73
2022/07/06 11:52:13;;;;;;;24.23;22.55;;;17.70;99.90;;;;;;5050290;28;20127;-73
2022/07/06 11:54:41;;;;;;;23.95;22.55;;;17.70;99.90;;;;;;5066302;28;20495;-73
2022/07/06 11:57:10;;;;;;;24.35;22.65;;;17.60;99.90;;;;;;5067007;28;20043;-73
2022/07/06 11:59:39;;;;;;;23.42;22.02;;;17.50;99.90;;;;;;5046654;28;20458;-73
2022/07/06 12:02:15;;;;;;;24.52;22.92;;;17.40;99.90;;;;;;5048991;28;20048;-73
2022/07/06 12:04:44;;;;;;;24.63;22.75;;;17.40;99.90;;;;;;5049090;28;20128;-73
2022/07/06 12:07:14;;;;;;;23.92;22.42;;;17.40;99.90;;;;;;5048681;28;20491;-73
2022/07/06 12:09:43;;;;;;;23.52;21.80;;;17.20;99.90;;;;;;5049385;28;20440;-73
2022/07/06 12:12:11;;;;;;;23.85;21.90;;;17.10;99.90;;;;;;5069021;28;20478;-73
2022/07/06 12:14:39;;;;;;;23.70;22.20;;;17.20;99.90;;;;;;5048867;28;20060;-73
2022/07/06 12:17:11;;;;;;;24.52;22.73;;;17.30;99.90;;;;;;5049310;28;20048;-74
2022/07/06 12:19:39;;;;;;;23.88;21.83;;;17.70;99.90;;;;;;5075646;28;21120;-73
2022/07/06 12:22:07;;;;;;;24.05;22.40;;;17.90;99.90;;;;;;5072741;28;20467;-73
2022/07/06 12:24:35;;;;;;;23.52;21.73;;;18.00;99.90;;;;;;5067673;28;20141;-73
2022/07/06 12:27:15;;;;;;;23.58;21.77;;;17.90;99.90;;;;;;5038582;28;20129;-73
2022/07/06 12:29:42;;;;;;;24.23;22.20;;;18.10;99.90;;;;;;5043784;28;20517;-73
2022/07/06 12:32:18;;;;;;;23.60;22.02;;;17.90;99.90;;;;;;5063755;28;20219;-73
2022/07/06 12:34:45;;;;;;;24.48;22.70;;;17.80;99.90;;;;;;5036439;28;20334;-73
2022/07/06 12:37:13;;;;;;;25.60;23.70;;;17.90;99.90;;;;;;5049933;28;20468;-73
2022/07/06 12:39:47;;;;;;;24.88;23.25;;;18.10;99.90;;;;;;5048983;28;20044;-72
2022/07/06 12:42:16;;;;;;;24.60;22.80;;;18.30;99.90;;;;;;5046703;28;20154;-73